Mogote, Colorado
Current Conditions -  °F | °C
As of 12:52 AM on Wednesday 22 Oct 2014 (Local Time) from KALS Reporting Station
Broken Clouds Broken Clouds  
Wind Chill: 44°   Ceiling: 9500
Heat Index: 47°   Visibility: 10mi
Dew Point: 38°   Wind: 7mph
Humidity: 71%   Direction: 180°S
Pressure: 30.15"   Gusts: NA
Location:  37.1816°N, 106.262°W
Report Text: KALS 220652Z AUTO 18006KT 10SM FEW080 BKN095 08/03 A3015 RMK AO2 SLP143 T00830033 401671017
Loading
Personal Weather Stations






























Interactive Weather Map
Tropical Storm Tracking
New forecast layout! Learn more

10-Day Weather Forecast

Advertisements
Track Severe Weather on mobile